Time;durP1;ratioP1;P1;durP2;ratioP2;P2;SDS_P1;SDS_P2;PMS_P1;PMS_P2;Temp;Humidity;BMP_temperature;BMP_pressure;BME280_temperature;BME280_humidity;BME280_pressure;Samples;Min_cycle;Max_cycle;Signal;HPM_P1;HPM_P2
2023/01/05 17:30:45;;;;;;;10.70;3.87;;;9.50;99.90;;;;;;5091941;27;20610;-67
2023/01/05 17:33:12;;;;;;;8.20;3.13;;;9.80;99.90;;;;;;5070981;28;20452;-64
2023/01/05 17:35:39;;;;;;;7.80;3.23;;;10.10;99.90;;;;;;5071170;28;20445;-66
2023/01/05 17:38:05;;;;;;;7.27;2.57;;;10.50;99.90;;;;;;5071257;28;20484;-69
2023/01/05 17:40:32;;;;;;;10.50;3.77;;;10.80;99.90;;;;;;5071182;28;20814;-67
2023/01/05 17:42:59;;;;;;;6.93;3.17;;;11.00;99.90;;;;;;5071001;28;20544;-68
2023/01/05 17:45:26;;;;;;;15.60;3.80;;;11.20;99.90;;;;;;5071049;28;20442;-71
2023/01/05 17:47:54;;;;;;;9.93;3.70;;;11.40;99.90;;;;;;5070607;28;20520;-66
2023/01/05 17:50:23;;;;;;;7.77;3.30;;;11.60;99.90;;;;;;5071016;28;20478;-68
2023/01/05 17:52:49;;;;;;;6.50;3.77;;;11.70;99.90;;;;;;5071620;28;20482;-70
2023/01/05 17:55:16;;;;;;;7.80;3.77;;;11.80;99.90;;;;;;5072711;28;20454;-68
2023/01/05 17:57:43;;;;;;;8.40;4.00;;;11.90;99.90;;;;;;5072751;28;20438;-68
2023/01/05 18:00:13;;;;;;;7.97;3.60;;;11.90;99.90;;;;;;5072423;28;20446;-68
2023/01/05 18:02:40;;;;;;;10.83;3.67;;;12.00;99.90;;;;;;5071831;28;20474;-65
2023/01/05 18:05:09;;;;;;;8.47;3.00;;;12.00;99.90;;;;;;5070977;28;20454;-68
2023/01/05 18:07:37;;;;;;;11.00;3.67;;;12.00;99.90;;;;;;5070537;28;20457;-65
2023/01/05 18:10:06;;;;;;;6.93;3.00;;;11.90;99.90;;;;;;5070197;28;21038;-65
2023/01/05 18:12:34;;;;;;;6.20;3.27;;;11.90;99.90;;;;;;5070921;28;20496;-66
2023/01/05 18:15:00;;;;;;;8.57;3.60;;;11.90;99.90;;;;;;5070213;28;20933;-67
2023/01/05 18:17:27;;;;;;;7.53;3.40;;;11.80;99.90;;;;;;5070622;28;20503;-65
2023/01/05 18:19:54;;;;;;;9.93;4.03;;;11.80;99.90;;;;;;5070560;28;20453;-66
2023/01/05 18:22:22;;;;;;;11.37;3.47;;;11.80;99.90;;;;;;5070966;28;20553;-66
2023/01/05 18:24:48;;;;;;;12.33;5.80;;;11.80;99.90;;;;;;5070686;28;20450;-66
2023/01/05 18:27:16;;;;;;;10.53;6.47;;;11.70;99.90;;;;;;5070822;28;20439;-66
2023/01/05 18:29:44;;;;;;;10.07;5.40;;;11.70;99.90;;;;;;5070366;28;20524;-66
2023/01/05 18:32:11;;;;;;;8.73;5.13;;;11.70;99.90;;;;;;5070263;28;20508;-67
2023/01/05 18:34:38;;;;;;;13.53;6.30;;;11.60;99.90;;;;;;5069991;28;20434;-66
2023/01/05 18:37:06;;;;;;;12.43;4.80;;;11.50;99.90;;;;;;5070538;28;20454;-66
2023/01/05 18:39:34;;;;;;;15.30;6.80;;;11.50;99.90;;;;;;5070335;28;20450;-66
2023/01/05 18:42:01;;;;;;;9.43;3.60;;;11.40;99.90;;;;;;5057727;28;20477;-66
2023/01/05 18:44:28;;;;;;;11.43;4.50;;;11.40;99.90;;;;;;5057632;28;20938;-66
2023/01/05 18:46:54;;;;;;;10.17;4.13;;;11.40;99.90;;;;;;5057424;28;20455;-66
2023/01/05 18:49:21;;;;;;;8.00;3.93;;;11.40;99.90;;;;;;5057782;28;20985;-68
2023/01/05 18:51:50;;;;;;;13.30;4.33;;;11.40;99.90;;;;;;5058554;28;20471;-67
2023/01/05 18:54:16;;;;;;;16.33;4.33;;;11.40;99.90;;;;;;5058405;28;20462;-67
2023/01/05 18:56:44;;;;;;;8.33;3.73;;;11.50;99.90;;;;;;5058128;28;20461;-67
2023/01/05 18:59:12;;;;;;;15.00;4.30;;;11.40;99.90;;;;;;5059241;28;20455;-68
2023/01/05 19:01:41;;;;;;;10.30;3.87;;;11.50;99.90;;;;;;5058680;28;20474;-67
2023/01/05 19:04:09;;;;;;;9.50;3.40;;;11.50;99.90;;;;;;5058388;28;20455;-68
2023/01/05 19:06:36;;;;;;;8.93;5.37;;;11.50;99.90;;;;;;5059407;28;20513;-70
2023/01/05 19:09:04;;;;;;;10.43;3.77;;;11.50;99.90;;;;;;5058404;28;20508;-66
2023/01/05 19:11:31;;;;;;;11.43;4.27;;;11.50;99.90;;;;;;5059227;28;20499;-71
2023/01/05 19:14:01;;;;;;;8.23;4.13;;;11.50;99.90;;;;;;5057673;28;20435;-68
2023/01/05 19:16:30;;;;;;;11.33;4.33;;;11.50;99.90;;;;;;5057005;28;20462;-70
2023/01/05 19:19:00;;;;;;;9.50;4.60;;;11.50;99.90;;;;;;5057079;28;20464;-69
2023/01/05 19:21:29;;;;;;;11.80;4.60;;;11.60;99.90;;;;;;5059108;28;20475;-65
2023/01/05 19:23:58;;;;;;;10.30;5.80;;;11.60;99.90;;;;;;5058032;28;20432;-65
2023/01/05 19:26:27;;;;;;;7.40;4.00;;;11.60;99.90;;;;;;5065362;28;20477;-65
2023/01/05 19:28:54;;;;;;;8.53;3.63;;;11.60;99.90;;;;;;5067209;28;20518;-65
2023/01/05 19:31:22;;;;;;;8.53;4.37;;;11.60;99.90;;;;;;5062514;28;20471;-66
2023/01/05 19:33:51;;;;;;;8.73;4.00;;;11.70;99.90;;;;;;5056519;28;20809;-65
2023/01/05 19:36:19;;;;;;;11.27;4.27;;;11.70;99.90;;;;;;5056077;28;20544;-65
2023/01/05 19:38:46;;;;;;;9.63;5.03;;;11.70;99.90;;;;;;5055965;28;20451;-65
2023/01/05 19:41:16;;;;;;;6.57;3.73;;;11.70;99.90;;;;;;5055562;28;20525;-65
2023/01/05 19:43:46;;;;;;;10.13;4.03;;;11.70;99.90;;;;;;5056044;28;20443;-65
2023/01/05 19:46:15;;;;;;;7.00;3.90;;;11.70;99.90;;;;;;5056155;28;20450;-64
2023/01/05 19:48:43;;;;;;;7.60;4.43;;;11.80;99.90;;;;;;5056028;28;20838;-65
2023/01/05 19:51:12;;;;;;;9.87;4.10;;;11.80;99.90;;;;;;5055629;28;20483;-65
2023/01/05 19:53:40;;;;;;;8.23;4.17;;;11.80;99.90;;;;;;5055268;28;20455;-65
2023/01/05 19:56:10;;;;;;;10.80;4.10;;;11.80;99.90;;;;;;5056869;28;20446;-64
2023/01/05 19:58:37;;;;;;;7.30;4.83;;;11.80;99.90;;;;;;5057568;28;20474;-65
2023/01/05 20:01:06;;;;;;;8.43;4.30;;;11.90;99.90;;;;;;5056979;28;20435;-65
2023/01/05 20:03:33;;;;;;;6.83;4.47;;;11.90;99.90;;;;;;5056435;28;20438;-64
2023/01/05 20:06:10;;;;;;;10.30;5.70;;;11.90;99.90;;;;;;5055819;28;20797;-64
2023/01/05 20:08:37;;;;;;;14.93;7.87;;;11.90;99.90;;;;;;5055573;28;20473;-65
2023/01/05 20:11:08;;;;;;;10.00;5.10;;;11.90;99.90;;;;;;5054983;28;20966;-64
2023/01/05 20:13:35;;;;;;;8.50;4.90;;;11.90;99.90;;;;;;5054747;28;20954;-65
2023/01/05 20:16:04;;;;;;;11.40;4.13;;;11.90;99.90;;;;;;5054941;28;20500;-64
2023/01/05 20:18:31;;;;;;;17.03;5.70;;;11.90;99.90;;;;;;5054718;28;20533;-64
2023/01/05 20:20:59;;;;;;;6.43;4.03;;;11.90;99.90;;;;;;5054785;28;20903;-65
2023/01/05 20:23:32;;;;;;;49.47;24.17;;;11.90;99.90;;;;;;5054675;28;20986;-65
2023/01/05 20:26:05;;;;;;;29.93;15.97;;;12.00;99.90;;;;;;5054483;28;20911;-65
2023/01/05 20:28:32;;;;;;;12.43;5.93;;;12.00;99.90;;;;;;5054708;28;20439;-64
2023/01/05 20:30:58;;;;;;;19.83;8.23;;;12.00;99.90;;;;;;5054276;28;20965;-64
2023/01/05 20:33:25;;;;;;;13.27;7.53;;;11.90;99.90;;;;;;5055031;28;20439;-64
2023/01/05 20:35:52;;;;;;;11.13;6.07;;;12.00;99.90;;;;;;5054824;28;20520;-65
2023/01/05 20:38:19;;;;;;;8.77;5.50;;;12.00;99.90;;;;;;5054435;28;20458;-65
2023/01/05 20:40:47;;;;;;;7.30;4.43;;;12.00;99.90;;;;;;5054830;28;20447;-65
2023/01/05 20:43:14;;;;;;;5.83;3.90;;;12.00;99.90;;;;;;5054725;28;20857;-65
2023/01/05 20:45:42;;;;;;;5.83;4.10;;;12.00;99.90;;;;;;5059015;28;20459;-65
2023/01/05 20:48:09;;;;;;;11.23;4.50;;;12.00;99.90;;;;;;5062763;28;20812;-65
2023/01/05 20:50:36;;;;;;;12.33;4.07;;;12.00;99.90;;;;;;5062866;28;20496;-66
2023/01/05 20:53:03;;;;;;;3.97;3.40;;;12.00;99.90;;;;;;5063370;28;20497;-66
2023/01/05 20:55:30;;;;;;;5.70;3.50;;;12.00;99.90;;;;;;5063303;28;20451;-67
2023/01/05 20:57:59;;;;;;;8.53;3.33;;;12.10;99.90;;;;;;5062968;28;20451;-66
2023/01/05 21:00:26;;;;;;;8.50;3.93;;;12.10;99.90;;;;;;5062887;28;20447;-66
2023/01/05 21:02:53;;;;;;;6.10;3.77;;;12.10;99.90;;;;;;5062684;28;20466;-66
2023/01/05 21:05:20;;;;;;;4.90;3.87;;;12.10;99.90;;;;;;5062447;28;20461;-66
2023/01/05 21:07:47;;;;;;;7.00;4.30;;;12.20;99.90;;;;;;5062486;28;20494;-66
2023/01/05 21:10:14;;;;;;;4.07;3.67;;;12.20;99.90;;;;;;5062190;28;20475;-65
2023/01/05 21:12:42;;;;;;;5.80;4.53;;;12.20;99.90;;;;;;5063215;28;20528;-65
2023/01/05 21:15:12;;;;;;;6.97;4.67;;;12.20;99.90;;;;;;5062571;28;20577;-65
2023/01/05 21:17:38;;;;;;;6.50;4.10;;;12.20;99.90;;;;;;5062531;28;20437;-66
2023/01/05 21:20:07;;;;;;;6.50;4.13;;;12.20;99.90;;;;;;5062322;28;20508;-65
2023/01/05 21:22:35;;;;;;;6.23;4.90;;;12.30;99.90;;;;;;5061951;28;20471;-66
2023/01/05 21:25:03;;;;;;;7.97;6.20;;;12.30;99.90;;;;;;5061879;28;20451;-65
2023/01/05 21:27:29;;;;;;;8.07;5.33;;;12.30;99.90;;;;;;5059875;28;20459;-65
2023/01/05 21:29:56;;;;;;;4.10;3.70;;;12.30;99.90;;;;;;5060793;28;20485;-65
2023/01/05 21:32:24;;;;;;;4.27;3.87;;;12.30;99.90;;;;;;5060743;28;20475;-65
2023/01/05 21:34:52;;;;;;;5.80;3.60;;;12.30;99.90;;;;;;5056900;28;20435;-64
2023/01/05 21:37:19;;;;;;;6.47;4.10;;;12.30;99.90;;;;;;5061000;28;20459;-65
2023/01/05 21:39:45;;;;;;;6.17;3.23;;;12.20;99.90;;;;;;5061227;28;20447;-65
2023/01/05 21:44:57;;;;;;;4.30;3.40;;;12.10;99.90;;;;;;5061538;28;20426;-64
2023/01/05 21:47:26;;;;;;;4.80;3.43;;;12.10;99.90;;;;;;5063053;28;20532;-64
2023/01/05 21:49:53;;;;;;;4.10;3.50;;;12.10;99.90;;;;;;5062164;28;20461;-64
2023/01/05 21:57:49;;;;;;;8.60;3.90;;;12.40;99.90;;;;;;5054678;28;20873;-65
